Time;durP1;ratioP1;P1;durP2;ratioP2;P2;SDS_P1;SDS_P2;PMS_P1;PMS_P2;Temp;Humidity;BMP_temperature;BMP_pressure;BME280_temperature;BME280_humidity;BME280_pressure;Samples;Min_cycle;Max_cycle;Signal;HPM_P1;HPM_P2
2023/12/20 00:01:05;;;;;;;67.80;33.43;;;7.20;99.90;;;;;;5072040;28;20197;-67
2023/12/20 00:03:31;;;;;;;70.67;33.10;;;7.20;99.90;;;;;;5072431;28;20211;-67
2023/12/20 00:05:57;;;;;;;67.93;33.47;;;7.20;99.90;;;;;;5073377;28;20655;-66
2023/12/20 00:08:23;;;;;;;67.17;32.43;;;7.10;99.90;;;;;;5073131;28;20178;-67
2023/12/20 00:10:49;;;;;;;58.23;28.77;;;7.10;99.90;;;;;;5072576;28;20247;-67
2023/12/20 00:13:14;;;;;;;64.70;31.03;;;7.10;99.90;;;;;;5071388;28;20268;-67
2023/12/20 00:15:40;;;;;;;63.53;29.93;;;7.10;99.90;;;;;;5072104;28;20205;-66
2023/12/20 00:18:06;;;;;;;59.67;29.97;;;7.00;99.90;;;;;;5072302;28;20292;-67
2023/12/20 00:20:32;;;;;;;65.13;28.73;;;7.00;99.90;;;;;;5072294;28;20635;-67
2023/12/20 00:22:58;;;;;;;61.90;29.77;;;7.00;99.90;;;;;;5075597;28;20209;-67
2023/12/20 00:25:24;;;;;;;60.93;28.87;;;7.00;99.90;;;;;;5076570;28;20184;-67
2023/12/20 00:27:50;;;;;;;63.53;30.50;;;7.00;99.90;;;;;;5076701;28;20174;-67
2023/12/20 00:30:16;;;;;;;64.87;30.00;;;7.00;99.90;;;;;;5074252;28;20202;-67
2023/12/20 00:32:46;;;;;;;62.07;30.17;;;7.00;99.90;;;;;;5076379;28;20177;-66
2023/12/20 00:35:14;;;;;;;65.20;31.17;;;7.00;99.90;;;;;;5075573;28;20193;-67
2023/12/20 00:37:40;;;;;;;62.13;29.97;;;7.00;99.90;;;;;;5075650;28;20647;-67
2023/12/20 00:40:06;;;;;;;66.80;30.93;;;7.00;99.90;;;;;;5075831;28;20201;-68
2023/12/20 00:42:33;;;;;;;64.97;28.93;;;6.90;99.90;;;;;;5074343;28;20181;-67
2023/12/20 00:44:59;;;;;;;64.40;30.30;;;7.00;99.90;;;;;;5075359;28;20186;-68
2023/12/20 00:47:25;;;;;;;63.20;27.13;;;7.00;99.90;;;;;;5075165;28;20177;-68
2023/12/20 00:49:51;;;;;;;59.50;29.47;;;7.00;99.90;;;;;;5075264;28;20761;-67
2023/12/20 00:52:17;;;;;;;59.27;29.17;;;6.90;99.90;;;;;;5075264;28;20181;-67
2023/12/20 00:54:43;;;;;;;51.63;27.10;;;6.90;99.90;;;;;;5075638;28;20174;-67
2023/12/20 00:57:09;;;;;;;58.60;27.50;;;7.00;99.90;;;;;;5075514;28;20662;-68
2023/12/20 00:59:35;;;;;;;57.70;28.47;;;6.90;99.90;;;;;;5075638;28;20184;-67
2023/12/20 01:02:01;;;;;;;57.77;27.63;;;6.90;99.90;;;;;;5075006;28;20253;-68
2023/12/20 01:04:27;;;;;;;57.07;26.93;;;6.90;99.90;;;;;;5075144;28;20178;-67
2023/12/20 01:06:53;;;;;;;41.00;22.27;;;6.90;99.90;;;;;;5075134;28;20174;-68
2023/12/20 01:09:19;;;;;;;39.20;21.23;;;6.80;99.90;;;;;;5073779;28;20231;-68
2023/12/20 01:11:48;;;;;;;42.60;20.50;;;6.80;99.90;;;;;;5075023;28;20198;-68
2023/12/20 01:14:14;;;;;;;43.23;19.07;;;6.80;99.90;;;;;;5074802;28;20251;-68
2023/12/20 01:16:40;;;;;;;41.30;20.87;;;6.80;99.90;;;;;;5073347;28;20682;-68
2023/12/20 01:19:06;;;;;;;30.80;16.90;;;6.80;99.90;;;;;;5075154;28;20180;-67
2023/12/20 01:21:32;;;;;;;33.87;16.63;;;6.70;99.90;;;;;;5074875;28;20185;-67
2023/12/20 01:23:58;;;;;;;26.30;14.57;;;6.70;99.90;;;;;;5074800;28;20193;-68
2023/12/20 01:26:23;;;;;;;25.20;13.00;;;6.60;99.90;;;;;;5075120;28;20177;-67
2023/12/20 01:28:49;;;;;;;23.93;13.20;;;6.50;99.90;;;;;;5074506;28;20209;-68
2023/12/20 01:31:15;;;;;;;24.40;13.80;;;6.50;99.90;;;;;;5074162;28;20503;-67
2023/12/20 01:33:41;;;;;;;26.10;12.80;;;6.40;99.90;;;;;;5074803;28;20174;-67
2023/12/20 01:36:06;;;;;;;22.63;12.20;;;6.40;99.90;;;;;;5074275;28;20259;-68
2023/12/20 01:38:32;;;;;;;22.67;12.10;;;6.40;99.90;;;;;;5074344;28;20178;-68
2023/12/20 01:40:59;;;;;;;22.20;12.27;;;6.40;99.90;;;;;;5074186;28;20200;-68
2023/12/20 01:43:24;;;;;;;22.67;12.20;;;6.40;99.90;;;;;;5072971;28;20174;-68
2023/12/20 01:45:51;;;;;;;21.13;11.60;;;6.30;99.90;;;;;;5073998;28;20177;-69
2023/12/20 01:48:17;;;;;;;22.40;12.00;;;6.30;99.90;;;;;;5074027;28;20244;-69
2023/12/20 01:50:45;;;;;;;31.37;12.20;;;6.30;99.90;;;;;;5074530;28;20193;-69
2023/12/20 01:53:12;;;;;;;17.63;10.67;;;6.30;99.90;;;;;;5072848;28;20174;-68
2023/12/20 01:55:40;;;;;;;20.03;11.23;;;6.30;99.90;;;;;;5073442;28;20206;-69
2023/12/20 01:58:10;;;;;;;19.73;11.03;;;6.30;99.90;;;;;;5073946;28;20170;-68
2023/12/20 02:00:37;;;;;;;18.03;10.70;;;6.30;99.90;;;;;;5072357;28;20198;-68
2023/12/20 02:03:03;;;;;;;23.33;11.53;;;6.30;99.90;;;;;;5073855;28;20249;-68
2023/12/20 02:05:33;;;;;;;19.80;11.67;;;6.30;99.90;;;;;;5073866;28;20185;-69
2023/12/20 02:08:00;;;;;;;25.20;11.97;;;6.40;99.90;;;;;;5073669;28;20182;-68
2023/12/20 02:10:26;;;;;;;23.27;12.07;;;6.30;99.90;;;;;;5073404;28;20289;-68
2023/12/20 02:12:52;;;;;;;16.27;10.73;;;6.30;99.90;;;;;;5073862;28;20636;-68
2023/12/20 02:15:18;;;;;;;24.17;12.07;;;6.40;99.90;;;;;;5073463;28;20229;-68
2023/12/20 02:17:45;;;;;;;17.13;11.60;;;6.40;99.90;;;;;;5073268;28;20625;-68
2023/12/20 02:20:11;;;;;;;20.10;11.03;;;6.40;99.90;;;;;;5073376;28;20216;-68
2023/12/20 02:22:36;;;;;;;20.10;11.83;;;6.40;99.90;;;;;;5073508;28;20166;-68
2023/12/20 02:25:02;;;;;;;24.10;11.77;;;6.40;99.90;;;;;;5073388;28;20196;-68
2023/12/20 02:27:29;;;;;;;17.53;10.67;;;6.40;99.90;;;;;;5073977;28;20180;-68
2023/12/20 02:29:55;;;;;;;18.23;11.17;;;6.30;99.90;;;;;;5073552;28;20667;-68
2023/12/20 02:32:22;;;;;;;18.43;12.40;;;6.30;99.90;;;;;;5071752;28;20180;-68
2023/12/20 02:34:48;;;;;;;17.37;11.50;;;6.30;99.90;;;;;;5072027;28;20177;-68
2023/12/20 02:37:14;;;;;;;19.77;11.10;;;6.40;99.90;;;;;;5073134;28;20205;-68
2023/12/20 02:39:40;;;;;;;16.87;10.40;;;6.30;99.90;;;;;;5071945;28;20561;-67
2023/12/20 02:42:06;;;;;;;28.97;12.37;;;6.30;99.90;;;;;;5073408;28;20173;-68
2023/12/20 02:44:32;;;;;;;20.17;10.73;;;6.30;99.90;;;;;;5072696;28;20185;-68
2023/12/20 02:46:57;;;;;;;14.70;10.57;;;6.20;99.90;;;;;;5071699;28;20182;-68
2023/12/20 02:49:23;;;;;;;14.40;9.33;;;6.20;99.90;;;;;;5071715;28;20247;-68
2023/12/20 02:51:49;;;;;;;24.10;10.53;;;6.20;99.90;;;;;;5071706;28;20280;-68
2023/12/20 02:54:15;;;;;;;17.43;10.17;;;6.10;99.90;;;;;;5073294;28;20272;-67
2023/12/20 02:56:41;;;;;;;22.23;9.37;;;6.10;99.90;;;;;;5072958;28;20197;-68
2023/12/20 02:59:08;;;;;;;13.73;9.20;;;6.10;99.90;;;;;;5073014;28;20594;-67
2023/12/20 03:01:34;;;;;;;12.57;8.23;;;6.10;99.90;;;;;;5071406;28;20200;-68
2023/12/20 03:04:00;;;;;;;15.93;9.57;;;6.10;99.90;;;;;;5072889;28;20174;-67
2023/12/20 03:06:26;;;;;;;20.33;9.17;;;6.10;99.90;;;;;;5072870;28;20206;-67
2023/12/20 03:08:52;;;;;;;17.57;9.37;;;6.10;99.90;;;;;;5071757;28;20201;-68
2023/12/20 03:11:18;;;;;;;19.40;8.23;;;6.10;99.90;;;;;;5072906;28;20193;-68
2023/12/20 03:13:44;;;;;;;17.87;9.23;;;6.00;99.90;;;;;;5071531;28;20661;-68
2023/12/20 03:16:11;;;;;;;19.77;9.27;;;6.10;99.90;;;;;;5072452;28;20201;-68
2023/12/20 03:18:37;;;;;;;18.90;10.00;;;6.10;99.90;;;;;;5072882;28;20608;-68
2023/12/20 03:21:04;;;;;;;16.33;10.50;;;6.10;99.90;;;;;;5072704;28;20269;-68
2023/12/20 03:23:30;;;;;;;19.13;10.20;;;6.10;99.90;;;;;;5073105;28;20215;-68
2023/12/20 03:25:56;;;;;;;18.60;10.53;;;6.10;99.90;;;;;;5072818;28;20176;-68
2023/12/20 03:28:25;;;;;;;21.10;12.57;;;6.20;99.90;;;;;;5073071;28;20188;-67
2023/12/20 03:30:51;;;;;;;30.60;12.50;;;6.10;99.90;;;;;;5072677;28;20655;-67
2023/12/20 03:33:17;;;;;;;26.37;12.40;;;6.10;99.90;;;;;;5071408;28;20239;-68
2023/12/20 03:35:42;;;;;;;20.23;12.23;;;6.20;99.90;;;;;;5072912;28;20251;-67
2023/12/20 03:38:09;;;;;;;24.77;12.30;;;6.10;99.90;;;;;;5071452;28;20186;-68
2023/12/20 03:40:35;;;;;;;18.37;11.17;;;6.10;99.90;;;;;;5072595;28;20197;-68
2023/12/20 03:43:01;;;;;;;15.37;11.20;;;6.20;99.90;;;;;;5072711;28;20550;-68
2023/12/20 03:45:26;;;;;;;21.10;11.87;;;6.20;99.90;;;;;;5072609;28;20190;-68
2023/12/20 03:47:56;;;;;;;19.90;11.67;;;6.10;99.90;;;;;;5072190;28;20247;-68
2023/12/20 03:50:25;;;;;;;19.33;11.27;;;6.10;99.90;;;;;;5071234;28;20214;-69
2023/12/20 03:52:51;;;;;;;18.63;12.93;;;6.10;99.90;;;;;;5071209;28;20560;-66
2023/12/20 03:55:17;;;;;;;20.30;12.10;;;6.10;99.90;;;;;;5073159;28;20211;-68
2023/12/20 03:57:43;;;;;;;22.17;11.27;;;6.10;99.90;;;;;;5076514;28;20178;-68
2023/12/20 04:00:10;;;;;;;20.40;11.27;;;6.10;99.90;;;;;;5076403;28;20193;-67
2023/12/20 04:02:39;;;;;;;24.57;11.50;;;6.10;99.90;;;;;;5075764;28;20178;-68
2023/12/20 04:05:06;;;;;;;15.93;11.17;;;6.00;99.90;;;;;;5076174;28;20189;-68
2023/12/20 04:07:32;;;;;;;18.30;11.10;;;6.00;99.90;;;;;;5074714;28;20174;-68
2023/12/20 04:09:58;;;;;;;20.30;11.57;;;6.00;99.90;;;;;;5074804;28;20659;-68
2023/12/20 04:12:24;;;;;;;19.40;11.27;;;6.10;99.90;;;;;;5076412;28;20169;-67
2023/12/20 04:14:50;;;;;;;23.10;11.23;;;6.10;99.90;;;;;;5074682;28;20185;-67
2023/12/20 04:17:16;;;;;;;22.73;10.97;;;6.10;99.90;;;;;;5074342;28;20212;-68
2023/12/20 04:19:42;;;;;;;19.97;11.63;;;6.10;99.90;;;;;;5074508;28;20188;-69
2023/12/20 04:22:09;;;;;;;20.07;10.93;;;6.10;99.90;;;;;;5075769;28;20174;-68
2023/12/20 04:24:35;;;;;;;18.37;10.33;;;6.00;99.90;;;;;;5074507;28;20178;-68
2023/12/20 04:27:01;;;;;;;21.23;10.60;;;6.00;99.90;;;;;;5074806;28;20185;-68
2023/12/20 04:29:27;;;;;;;23.70;10.50;;;5.90;99.90;;;;;;5075705;28;20236;-67
2023/12/20 04:31:53;;;;;;;18.67;10.33;;;6.00;99.90;;;;;;5075304;28;20201;-68
2023/12/20 04:34:19;;;;;;;21.27;10.97;;;5.90;99.90;;;;;;5075577;28;20185;-68
2023/12/20 04:36:45;;;;;;;20.27;10.10;;;5.90;99.90;;;;;;5075513;28;20208;-68
2023/12/20 04:39:12;;;;;;;23.70;10.17;;;5.90;99.90;;;;;;5075520;28;20185;-68
2023/12/20 04:41:38;;;;;;;18.83;10.07;;;5.80;99.90;;;;;;5075420;28;20674;-68
2023/12/20 04:44:06;;;;;;;19.77;9.87;;;5.90;99.90;;;;;;5075776;28;20182;-68
2023/12/20 04:46:32;;;;;;;20.30;10.00;;;5.90;99.90;;;;;;5075654;28;20181;-69
2023/12/20 04:48:58;;;;;;;17.83;11.63;;;5.90;99.90;;;;;;5076236;28;20658;-69
2023/12/20 04:51:23;;;;;;;32.67;11.73;;;5.90;99.90;;;;;;5074194;28;20201;-68
2023/12/20 04:53:49;;;;;;;23.93;10.87;;;5.90;99.90;;;;;;5074144;28;20537;-69
2023/12/20 04:56:15;;;;;;;22.27;12.07;;;5.90;99.90;;;;;;5075320;28;20212;-68
2023/12/20 04:58:42;;;;;;;24.80;12.13;;;5.90;99.90;;;;;;5074143;28;20182;-68
2023/12/20 05:01:09;;;;;;;24.63;11.90;;;5.90;99.90;;;;;;5075032;28;20720;-68
2023/12/20 05:03:35;;;;;;;25.43;12.13;;;5.90;99.90;;;;;;5074018;28;20273;-69
2023/12/20 05:06:01;;;;;;;19.77;12.30;;;5.90;99.90;;;;;;5074108;28;20273;-68
2023/12/20 05:08:27;;;;;;;21.53;12.63;;;5.90;99.90;;;;;;5074779;28;20201;-70
2023/12/20 05:10:54;;;;;;;23.80;13.27;;;6.00;99.90;;;;;;5073660;28;20198;-68
2023/12/20 05:13:20;;;;;;;28.63;11.63;;;5.90;99.90;;;;;;5075016;28;20185;-69
2023/12/20 05:15:46;;;;;;;22.63;12.90;;;5.90;99.90;;;;;;5074797;28;20284;-69
2023/12/20 05:18:12;;;;;;;27.57;13.27;;;5.90;99.90;;;;;;5074747;28;20262;-69
2023/12/20 05:20:39;;;;;;;23.43;12.63;;;5.90;99.90;;;;;;5074818;28;20197;-69
2023/12/20 05:23:05;;;;;;;27.87;13.40;;;6.00;99.90;;;;;;5074853;28;20181;-69
2023/12/20 05:25:31;;;;;;;20.40;12.40;;;6.00;99.90;;;;;;5074787;28;20254;-69
2023/12/20 05:27:57;;;;;;;26.53;12.20;;;6.00;99.90;;;;;;5073416;28;20615;-69
2023/12/20 05:30:22;;;;;;;26.70;13.97;;;6.00;99.90;;;;;;5074603;28;20198;-68
2023/12/20 05:32:49;;;;;;;19.20;12.27;;;6.00;99.90;;;;;;5074435;28;20214;-69
2023/12/20 05:35:15;;;;;;;27.20;12.83;;;6.00;99.90;;;;;;5074507;28;20174;-69
2023/12/20 05:37:41;;;;;;;20.13;12.47;;;6.00;99.90;;;;;;5074574;28;20174;-68
2023/12/20 05:40:11;;;;;;;19.80;12.03;;;6.00;99.90;;;;;;5074741;28;20198;-68
2023/12/20 05:42:40;;;;;;;23.00;11.93;;;5.90;99.90;;;;;;5073099;28;20260;-68
2023/12/20 05:45:06;;;;;;;25.00;12.70;;;5.90;99.90;;;;;;5074189;28;20209;-69
2023/12/20 05:47:32;;;;;;;23.47;12.97;;;5.90;99.90;;;;;;5074057;28;20170;-69
2023/12/20 05:49:58;;;;;;;21.73;12.57;;;5.90;99.90;;;;;;5072967;28;20216;-68
2023/12/20 05:52:24;;;;;;;21.90;12.27;;;5.90;99.90;;;;;;5075653;28;20200;-68
2023/12/20 05:54:50;;;;;;;23.97;11.90;;;5.90;99.90;;;;;;5074615;28;20185;-68
2023/12/20 05:57:15;;;;;;;25.97;13.47;;;5.90;99.90;;;;;;5073654;28;20232;-69
2023/12/20 05:59:41;;;;;;;20.50;13.80;;;5.90;99.90;;;;;;5075375;28;20227;-68
2023/12/20 06:02:07;;;;;;;29.57;12.77;;;5.90;99.90;;;;;;5074047;28;20239;-69
2023/12/20 06:04:33;;;;;;;23.20;12.27;;;5.90;99.90;;;;;;5074459;28;20182;-68
2023/12/20 06:06:59;;;;;;;26.87;13.13;;;5.90;99.90;;;;;;5072578;28;20232;-68
2023/12/20 06:09:27;;;;;;;30.07;12.57;;;5.90;99.90;;;;;;5074162;28;20178;-67
2023/12/20 06:11:52;;;;;;;21.67;12.90;;;5.90;99.90;;;;;;5074157;28;20201;-67
2023/12/20 06:14:18;;;;;;;26.83;12.43;;;5.80;99.90;;;;;;5074082;28;20185;-69
2023/12/20 06:16:45;;;;;;;27.30;12.80;;;5.80;99.90;;;;;;5073557;28;20689;-69
2023/12/20 06:19:11;;;;;;;22.50;12.97;;;5.80;99.90;;;;;;5071617;28;20173;-68
2023/12/20 06:21:37;;;;;;;24.80;12.67;;;5.80;99.90;;;;;;5072459;28;20205;-69
2023/12/20 06:24:03;;;;;;;19.50;11.90;;;5.80;99.90;;;;;;5073711;28;20184;-69
2023/12/20 06:26:29;;;;;;;30.33;14.23;;;5.80;99.90;;;;;;5073589;28;20265;-69
2023/12/20 06:28:55;;;;;;;28.03;12.70;;;5.80;99.90;;;;;;5073653;28;20174;-69
2023/12/20 06:31:21;;;;;;;18.90;12.47;;;5.80;99.90;;;;;;5072212;28;20204;-69
2023/12/20 06:33:47;;;;;;;28.07;12.37;;;5.80;99.90;;;;;;5072216;28;20178;-69
2023/12/20 06:36:13;;;;;;;24.23;12.37;;;5.80;99.90;;;;;;5072303;28;20231;-70
2023/12/20 06:38:39;;;;;;;24.57;13.27;;;5.80;99.90;;;;;;5074079;28;20174;-69
2023/12/20 06:41:05;;;;;;;24.87;13.77;;;5.90;99.90;;;;;;5073620;28;20662;-67
2023/12/20 06:43:32;;;;;;;21.43;13.27;;;5.90;99.90;;;;;;5073378;28;20174;-69
2023/12/20 06:45:58;;;;;;;35.97;13.73;;;6.00;99.90;;;;;;5073378;28;20201;-69
2023/12/20 06:48:24;;;;;;;19.43;12.87;;;5.90;99.90;;;;;;5071689;28;20251;-68
2023/12/20 06:50:50;;;;;;;27.17;13.37;;;5.90;99.90;;;;;;5073609;28;20205;-69
2023/12/20 06:53:16;;;;;;;42.23;14.57;;;5.90;99.90;;;;;;5072032;28;20181;-69
2023/12/20 06:55:42;;;;;;;27.17;12.43;;;5.90;99.90;;;;;;5073603;28;20212;-69
2023/12/20 06:58:08;;;;;;;23.37;13.00;;;5.90;99.90;;;;;;5073649;28;20622;-68
2023/12/20 07:00:34;;;;;;;25.53;12.97;;;5.90;99.90;;;;;;5073454;28;20651;-69
2023/12/20 07:03:00;;;;;;;30.93;13.70;;;5.90;99.90;;;;;;5071825;28;20188;-68
2023/12/20 07:05:26;;;;;;;19.63;12.57;;;5.90;99.90;;;;;;5073174;28;20174;-68
2023/12/20 07:07:52;;;;;;;25.57;13.33;;;5.90;99.90;;;;;;5073511;28;20181;-68
2023/12/20 07:10:18;;;;;;;23.97;12.60;;;5.90;99.90;;;;;;5073054;28;20563;-67
2023/12/20 07:12:44;;;;;;;25.00;11.90;;;6.00;99.90;;;;;;5073420;28;20236;-69
2023/12/20 07:15:10;;;;;;;19.60;12.33;;;6.00;99.90;;;;;;5071548;28;20280;-68
2023/12/20 07:17:36;;;;;;;27.83;11.33;;;6.00;99.90;;;;;;5072755;28;20177;-68
2023/12/20 07:20:06;;;;;;;28.47;12.23;;;6.00;99.90;;;;;;5071578;28;20225;-68
2023/12/20 07:22:33;;;;;;;24.23;11.87;;;6.00;99.90;;;;;;5071798;28;20166;-68
2023/12/20 07:24:59;;;;;;;22.30;11.00;;;6.00;99.90;;;;;;5071633;28;20177;-69
2023/12/20 07:27:26;;;;;;;24.67;11.33;;;6.00;99.90;;;;;;5073175;28;20178;-69
2023/12/20 07:29:52;;;;;;;21.20;10.37;;;6.00;99.90;;;;;;5073448;28;20185;-68
2023/12/20 07:32:18;;;;;;;21.23;11.00;;;6.00;99.90;;;;;;5076700;28;20173;-68
2023/12/20 07:34:43;;;;;;;18.97;10.93;;;6.00;99.90;;;;;;5076922;28;20204;-68
2023/12/20 07:37:11;;;;;;;18.40;10.73;;;6.00;99.90;;;;;;5076879;28;20581;-69
2023/12/20 07:39:39;;;;;;;23.00;10.50;;;6.10;99.90;;;;;;5076849;28;20174;-69
2023/12/20 07:42:05;;;;;;;23.07;10.67;;;6.10;99.90;;;;;;5077163;28;20161;-69
2023/12/20 07:44:31;;;;;;;18.60;9.97;;;6.10;99.90;;;;;;5076632;28;20178;-69
2023/12/20 07:46:57;;;;;;;19.70;10.93;;;6.10;99.90;;;;;;5076655;28;20178;-70
2023/12/20 07:49:24;;;;;;;27.07;11.10;;;6.10;99.90;;;;;;5075217;28;20570;-69
2023/12/20 07:51:49;;;;;;;27.03;10.40;;;6.10;99.90;;;;;;5076550;28;20205;-68
2023/12/20 07:54:15;;;;;;;17.60;10.47;;;6.10;99.90;;;;;;5076519;28;20231;-69
2023/12/20 07:56:42;;;;;;;18.13;10.23;;;6.10;99.90;;;;;;5076432;28;20228;-69
2023/12/20 07:59:07;;;;;;;20.37;11.00;;;6.10;99.90;;;;;;5076971;28;20174;-69
2023/12/20 08:01:33;;;;;;;21.10;10.17;;;6.10;99.90;;;;;;5076119;28;20194;-68
2023/12/20 08:03:59;;;;;;;20.93;10.07;;;6.10;99.90;;;;;;5076394;28;20556;-69
2023/12/20 08:06:25;;;;;;;26.00;10.97;;;6.10;99.90;;;;;;5075031;28;20574;-69
2023/12/20 08:08:51;;;;;;;25.73;10.70;;;6.10;99.90;;;;;;5075070;28;20186;-70
2023/12/20 08:11:17;;;;;;;15.90;9.50;;;6.10;99.90;;;;;;5074930;28;20343;-69
2023/12/20 08:13:43;;;;;;;25.13;11.57;;;6.10;99.90;;;;;;5074809;28;20181;-67
2023/12/20 08:16:09;;;;;;;23.60;10.80;;;6.10;99.90;;;;;;5074800;28;20645;-69
2023/12/20 08:18:35;;;;;;;20.13;10.13;;;6.10;99.90;;;;;;5075924;28;20181;-69
2023/12/20 08:21:01;;;;;;;21.20;9.37;;;6.10;99.90;;;;;;5076860;28;20194;-69
2023/12/20 08:23:27;;;;;;;29.43;10.70;;;6.10;99.90;;;;;;5076950;28;20615;-68
2023/12/20 08:25:53;;;;;;;25.23;11.27;;;6.10;99.90;;;;;;5076660;28;20223;-69
2023/12/20 08:28:19;;;;;;;23.37;10.70;;;6.10;99.90;;;;;;5076325;28;20178;-69
2023/12/20 08:30:45;;;;;;;27.27;10.73;;;6.10;99.90;;;;;;5075956;28;20662;-69
2023/12/20 08:33:12;;;;;;;18.57;10.33;;;6.20;99.90;;;;;;5074267;28;20194;-67
2023/12/20 08:35:39;;;;;;;19.97;11.33;;;6.20;99.90;;;;;;5075736;28;20197;-69
2023/12/20 08:38:06;;;;;;;24.33;12.03;;;6.20;99.90;;;;;;5075962;28;20189;-68
2023/12/20 08:40:32;;;;;;;20.70;10.37;;;6.20;99.90;;;;;;5074408;28;20586;-70
2023/12/20 08:42:58;;;;;;;17.50;10.53;;;6.20;99.90;;;;;;5074907;28;20173;-70
2023/12/20 08:45:24;;;;;;;27.63;10.73;;;6.20;99.90;;;;;;5075605;28;20189;-69
2023/12/20 08:47:50;;;;;;;20.93;10.97;;;6.20;99.90;;;;;;5074074;28;20303;-69
2023/12/20 08:50:16;;;;;;;26.40;10.73;;;6.20;99.90;;;;;;5075419;28;20292;-68
2023/12/20 08:52:42;;;;;;;20.27;10.77;;;6.30;99.90;;;;;;5074236;28;20186;-68
2023/12/20 08:55:10;;;;;;;18.37;10.27;;;6.30;99.90;;;;;;5076001;28;20178;-69
2023/12/20 08:57:36;;;;;;;24.33;12.27;;;6.30;99.90;;;;;;5075647;28;20217;-69
2023/12/20 09:00:03;;;;;;;17.40;11.20;;;6.40;99.90;;;;;;5075295;28;20198;-69
2023/12/20 09:02:28;;;;;;;26.47;11.40;;;6.40;99.90;;;;;;5073848;28;20268;-66
2023/12/20 09:04:55;;;;;;;20.47;11.40;;;6.40;99.90;;;;;;5075807;28;20259;-69
2023/12/20 09:07:25;;;;;;;23.23;10.73;;;6.30;99.90;;;;;;5073860;28;20185;-68
2023/12/20 09:09:52;;;;;;;20.80;10.27;;;6.40;99.90;;;;;;5073862;28;20181;-69
2023/12/20 09:12:21;;;;;;;23.60;11.53;;;6.40;99.90;;;;;;5073873;28;20178;-69
2023/12/20 09:14:48;;;;;;;18.83;11.03;;;6.40;99.90;;;;;;5074991;28;20189;-69
2023/12/20 09:17:14;;;;;;;19.47;10.87;;;6.40;99.90;;;;;;5073308;28;20209;-69
2023/12/20 09:19:40;;;;;;;19.63;12.13;;;6.40;99.90;;;;;;5075106;28;20176;-70
2023/12/20 09:22:06;;;;;;;27.03;10.37;;;6.40;99.90;;;;;;5073598;28;20189;-68
2023/12/20 09:24:32;;;;;;;20.73;11.73;;;6.40;99.90;;;;;;5074876;28;20639;-69
2023/12/20 09:26:58;;;;;;;19.97;10.27;;;6.40;99.90;;;;;;5073565;28;20186;-69
2023/12/20 09:29:24;;;;;;;17.43;10.23;;;6.40;99.90;;;;;;5073469;28;20697;-70
2023/12/20 09:31:50;;;;;;;17.07;10.53;;;6.40;99.90;;;;;;5074287;28;20193;-69
2023/12/20 09:34:19;;;;;;;21.80;10.03;;;6.40;99.90;;;;;;5074679;28;20185;-70
2023/12/20 09:36:46;;;;;;;24.70;11.23;;;6.50;99.90;;;;;;5074538;28;20202;-67
2023/12/20 09:39:26;;;;;;;23.67;11.33;;;6.50;99.90;;;;;;5073612;28;20185;-67
2023/12/20 09:42:01;;;;;;;21.13;9.77;;;6.50;99.90;;;;;;5074541;28;20699;-68
2023/12/20 09:44:28;;;;;;;26.73;11.57;;;6.50;99.90;;;;;;5074407;28;20185;-67
2023/12/20 09:46:56;;;;;;;17.83;10.43;;;6.50;99.90;;;;;;5072920;28;20182;-69
2023/12/20 09:49:22;;;;;;;21.80;9.87;;;6.50;99.90;;;;;;5072805;28;20200;-69
2023/12/20 09:51:50;;;;;;;21.17;10.80;;;6.50;99.90;;;;;;5074233;28;20288;-68
2023/12/20 09:54:21;;;;;;;35.33;10.73;;;6.50;99.90;;;;;;5073981;28;20185;-69
2023/12/20 09:56:47;;;;;;;14.80;9.37;;;6.50;99.90;;;;;;5074630;28;20209;-68
2023/12/20 09:59:13;;;;;;;23.67;10.60;;;6.50;99.90;;;;;;5074121;28;20200;-67
2023/12/20 10:01:42;;;;;;;13.43;9.43;;;6.50;99.90;;;;;;5074249;28;20238;-68
2023/12/20 10:04:12;;;;;;;25.13;10.17;;;6.50;99.90;;;;;;5073792;28;20597;-69
2023/12/20 10:06:44;;;;;;;20.90;10.20;;;6.60;99.90;;;;;;5074511;28;20685;-68
2023/12/20 10:09:11;;;;;;;23.77;9.70;;;6.60;99.90;;;;;;5073939;28;20670;-67
2023/12/20 10:11:40;;;;;;;19.33;9.03;;;6.50;99.90;;;;;;5073810;28;20193;-69
2023/12/20 10:14:06;;;;;;;17.33;8.43;;;6.60;99.90;;;;;;5072498;28;20281;-69
2023/12/20 10:16:33;;;;;;;18.83;9.70;;;6.60;99.90;;;;;;5072517;28;20205;-69
2023/12/20 10:19:04;;;;;;;16.33;9.57;;;6.60;99.90;;;;;;5073587;28;20178;-69
2023/12/20 10:21:30;;;;;;;22.33;9.33;;;6.60;99.90;;;;;;5073764;28;20244;-69
2023/12/20 10:23:57;;;;;;;14.47;8.27;;;6.60;99.90;;;;;;5073652;28;20220;-69
2023/12/20 10:26:25;;;;;;;22.80;8.87;;;6.60;99.90;;;;;;5073651;28;20650;-69
2023/12/20 10:29:00;;;;;;;21.50;9.53;;;6.60;99.90;;;;;;5073595;28;20303;-69
2023/12/20 10:31:30;;;;;;;16.37;8.47;;;6.60;99.90;;;;;;5073512;28;20197;-69
2023/12/20 10:33:58;;;;;;;21.87;9.37;;;6.60;99.90;;;;;;5071984;28;20181;-68
2023/12/20 10:36:28;;;;;;;21.77;9.07;;;6.70;99.90;;;;;;5072115;28;20220;-69
2023/12/20 10:38:58;;;;;;;21.43;10.13;;;6.60;99.90;;;;;;5073589;28;20162;-69
2023/12/20 10:41:32;;;;;;;21.03;8.60;;;6.70;99.90;;;;;;5073374;28;20193;-69
2023/12/20 10:44:04;;;;;;;18.93;8.90;;;6.70;99.90;;;;;;5072002;28;20263;-69
2023/12/20 10:46:32;;;;;;;19.80;8.90;;;6.60;99.90;;;;;;5073369;28;20173;-68
2023/12/20 10:48:59;;;;;;;22.70;10.23;;;6.70;99.90;;;;;;5072867;28;20193;-69
2023/12/20 10:51:30;;;;;;;22.63;9.47;;;6.70;99.90;;;;;;5073305;28;20197;-69
2023/12/20 10:53:56;;;;;;;21.37;9.73;;;6.70;99.90;;;;;;5073872;28;20249;-70
2023/12/20 10:56:23;;;;;;;22.70;9.83;;;6.70;99.90;;;;;;5073247;28;20281;-69
2023/12/20 10:58:50;;;;;;;23.90;9.97;;;6.60;99.90;;;;;;5073545;28;20174;-68
2023/12/20 11:01:20;;;;;;;20.93;9.67;;;6.60;99.90;;;;;;5073250;28;20198;-69
2023/12/20 11:03:50;;;;;;;17.93;10.00;;;6.60;99.90;;;;;;5072929;28;20694;-69
2023/12/20 11:06:44;;;;;;;14.87;9.40;;;6.60;99.90;;;;;;5071345;28;20608;-69
2023/12/20 11:09:31;;;;;;;22.77;10.50;;;6.60;99.90;;;;;;5073519;28;20166;-70
2023/12/20 11:12:02;;;;;;;21.40;9.80;;;6.60;99.90;;;;;;5073307;28;20633;-69
2023/12/20 11:14:39;;;;;;;22.37;10.37;;;6.60;99.90;;;;;;5073407;28;20186;-68
2023/12/20 11:17:09;;;;;;;21.60;10.53;;;6.70;99.90;;;;;;5073560;28;20190;-69
2023/12/20 11:19:59;;;;;;;19.00;10.23;;;6.70;99.90;;;;;;5073578;28;20249;-69
2023/12/20 11:22:25;;;;;;;22.80;9.97;;;6.70;99.90;;;;;;5073041;28;20185;-69
2023/12/20 11:24:52;;;;;;;20.57;9.03;;;6.70;99.90;;;;;;5071777;28;20264;-69
2023/12/20 11:27:22;;;;;;;25.77;10.70;;;6.60;99.90;;;;;;5073350;28;20651;-68
2023/12/20 11:29:58;;;;;;;16.40;9.97;;;6.70;99.90;;;;;;5071712;28;20277;-69
2023/12/20 11:34:55;;;;;;;26.77;10.13;;;6.70;99.90;;;;;;5073396;28;20178;-69
2023/12/20 11:37:21;;;;;;;16.13;9.83;;;6.70;99.90;;;;;;5073297;28;20287;-68
2023/12/20 11:39:56;;;;;;;17.27;10.90;;;6.60;99.90;;;;;;5071718;28;20196;-68
2023/12/20 11:42:22;;;;;;;22.83;10.77;;;6.60;99.90;;;;;;5072230;28;20166;-68
2023/12/20 11:44:48;;;;;;;18.13;10.03;;;6.60;99.90;;;;;;5073117;28;20555;-68
2023/12/20 11:47:15;;;;;;;20.47;11.63;;;6.60;99.90;;;;;;5073293;28;20177;-69
2023/12/20 11:49:41;;;;;;;27.20;10.60;;;6.70;99.90;;;;;;5071702;28;20258;-68
2023/12/20 11:52:07;;;;;;;20.53;10.10;;;6.70;99.90;;;;;;5073306;28;20203;-69
2023/12/20 11:54:33;;;;;;;16.63;10.10;;;6.70;99.90;;;;;;5073227;28;20704;-69
2023/12/20 11:56:59;;;;;;;23.73;10.43;;;6.60;99.90;;;;;;5072922;28;20753;-69
2023/12/20 11:59:24;;;;;;;18.53;10.13;;;6.70;99.90;;;;;;5073211;28;20174;-69
2023/12/20 12:01:51;;;;;;;19.77;10.50;;;6.80;99.90;;;;;;5072655;28;20194;-68
2023/12/20 12:04:19;;;;;;;21.20;10.67;;;6.80;99.90;;;;;;5072340;28;20607;-69
2023/12/20 12:06:46;;;;;;;21.80;12.57;;;6.80;99.90;;;;;;5072618;28;20181;-69
2023/12/20 12:09:11;;;;;;;25.27;12.77;;;6.80;99.90;;;;;;5071356;28;20185;-69
2023/12/20 12:11:38;;;;;;;25.30;11.60;;;6.80;99.90;;;;;;5071308;28;20233;-69
2023/12/20 12:14:04;;;;;;;19.93;11.10;;;6.80;99.90;;;;;;5072466;28;20538;-69
2023/12/20 12:16:30;;;;;;;23.80;10.97;;;6.70;99.90;;;;;;5073616;28;20562;-69
2023/12/20 12:18:58;;;;;;;16.37;11.00;;;6.70;99.90;;;;;;5074615;28;20178;-70
2023/12/20 12:21:25;;;;;;;24.63;11.60;;;6.70;99.90;;;;;;5076149;28;20198;-68
2023/12/20 12:23:51;;;;;;;23.27;13.20;;;6.70;99.90;;;;;;5075977;28;20181;-68
2023/12/20 12:26:17;;;;;;;19.90;10.73;;;6.70;99.90;;;;;;5076296;28;20177;-69
2023/12/20 12:28:43;;;;;;;23.10;11.77;;;6.70;99.90;;;;;;5076349;28;20227;-69
2023/12/20 12:31:17;;;;;;;18.10;11.13;;;6.70;99.90;;;;;;5076003;28;20593;-69
2023/12/20 12:33:44;;;;;;;21.40;11.80;;;6.70;99.90;;;;;;5075734;28;20181;-69
2023/12/20 12:36:11;;;;;;;24.50;10.73;;;6.70;99.90;;;;;;5075906;28;20544;-69
2023/12/20 12:38:37;;;;;;;20.00;11.40;;;6.60;99.90;;;;;;5075748;28;20256;-69